Time;durP1;ratioP1;P1;durP2;ratioP2;P2;SDS_P1;SDS_P2;PMS_P1;PMS_P2;Temp;Humidity;BMP_temperature;BMP_pressure;BME280_temperature;BME280_humidity;BME280_pressure;Samples;Min_cycle;Max_cycle;Signal;HPM_P1;HPM_P2
2023/01/18 00:01:21;;;;;;;82.50;47.20;;;;;;;1.66;77.68;94448.13;108836;1251;108407;-77
2023/01/18 00:03:49;;;;;;;80.00;47.00;;;;;;;1.64;77.83;94451.95;108836;1251;95532;-75
2023/01/18 00:06:17;;;;;;;71.30;41.70;;;;;;;1.64;77.63;94447.16;108557;1251;96787;-76
2023/01/18 00:08:45;;;;;;;59.80;35.50;;;;;;;1.64;77.76;94440.83;108645;1251;103469;-77
2023/01/18 00:11:15;;;;;;;70.60;39.10;;;;;;;1.58;77.80;94438.13;108849;1251;101373;-76
2023/01/18 00:13:45;;;;;;;70.20;39.90;;;;;;;1.54;77.85;94437.29;108871;1251;99840;-76
2023/01/18 00:16:21;;;;;;;68.90;39.00;;;;;;;1.54;77.96;94432.52;108560;1251;95582;-76
2023/01/18 00:18:54;;;;;;;69.80;38.10;;;;;;;1.56;78.04;94431.55;108578;1251;96721;-75
2023/01/18 00:21:24;;;;;;;68.50;38.90;;;;;;;1.57;78.04;94429.06;108889;1251;103524;-76
2023/01/18 00:23:52;;;;;;;66.00;37.60;;;;;;;1.57;78.04;94421.62;108600;1254;101377;-75
2023/01/18 00:26:21;;;;;;;61.50;36.50;;;;;;;1.58;78.20;94421.15;108823;1251;99965;-76
2023/01/18 00:28:49;;;;;;;60.80;34.70;;;;;;;1.59;78.13;94422.92;108843;1251;95560;-76
2023/01/18 00:31:21;;;;;;;66.20;39.40;;;;;;;1.57;78.13;94424.64;108878;1251;96420;-75
2023/01/18 00:33:50;;;;;;;69.50;41.20;;;;;;;1.58;78.22;94421.52;108892;1251;103078;-75
2023/01/18 00:36:19;;;;;;;65.40;37.90;;;;;;;1.60;78.27;94421.31;108669;1252;101341;-76
2023/01/18 00:38:51;;;;;;;66.50;38.50;;;;;;;1.61;78.26;94427.04;108898;1251;98693;-77
2023/01/18 00:41:20;;;;;;;61.20;37.80;;;;;;;1.63;78.39;94427.89;108834;1251;95789;-75
2023/01/18 00:43:49;;;;;;;50.70;29.50;;;;;;;1.64;78.32;94425.40;108852;1251;96166;-75
2023/01/18 00:46:26;;;;;;;44.70;26.60;;;;;;;1.62;78.51;94416.59;108733;1251;210816;-74
2023/01/18 00:48:56;;;;;;;38.50;22.60;;;;;;;1.60;78.43;94411.70;108933;1251;101207;-74
2023/01/18 00:51:25;;;;;;;37.50;22.00;;;;;;;1.60;78.62;94405.32;108649;1252;99956;-75
2023/01/18 00:53:53;;;;;;;33.30;21.60;;;;;;;1.63;78.69;94400.33;108878;1251;95527;-75
2023/01/18 00:56:22;;;;;;;34.40;20.30;;;;;;;1.65;78.65;94389.55;108915;1251;95985;-75
2023/01/18 00:58:51;;;;;;;27.10;16.80;;;;;;;1.66;78.64;94396.81;108911;1251;103611;-75
2023/01/18 01:01:19;;;;;;;20.10;12.60;;;;;;;1.67;78.73;94398.37;108891;1251;100998;-74
2023/01/18 01:06:44;;;;;;;21.60;13.70;;;;;;;1.75;78.80;94381.64;108664;1251;95622;-75
2023/01/18 01:09:22;;;;;;;20.60;13.80;;;;;;;1.78;78.78;94384.27;108817;1251;96326;-75
2023/01/18 01:28:28;;;;;;;13.00;7.90;;;;;;;1.75;79.24;94352.44;108856;1251;101209;-75
2023/01/18 01:31:00;;;;;;;11.70;6.70;;;;;;;1.77;79.24;94352.55;108612;1251;98909;-75
2023/01/18 01:33:30;;;;;;;10.20;6.80;;;;;;;1.80;79.23;94349.91;108722;1252;95774;-74
2023/01/18 01:36:01;;;;;;;10.70;6.60;;;;;;;1.80;79.16;94351.23;108827;1251;95694;-74
2023/01/18 01:38:30;;;;;;;13.40;7.80;;;;;;;1.77;79.15;94361.44;108893;1251;103715;-74
2023/01/18 01:41:04;;;;;;;12.00;7.60;;;;;;;1.77;79.27;94375.80;108865;1251;101058;-74
2023/01/18 01:43:44;;;;;;;13.30;7.60;;;;;;;1.77;79.29;94380.73;108838;1251;98557;-74
2023/01/18 01:46:44;;;;;;;8.90;5.40;;;;;;;1.75;79.36;94378.20;108841;1251;95588;-74
2023/01/18 01:49:22;;;;;;;5.80;4.10;;;;;;;1.74;79.52;94364.39;108196;1259;96238;-74
2023/01/18 01:52:04;;;;;;;6.00;3.60;;;;;;;1.67;79.51;94356.83;108219;1259;102525;-74
2023/01/18 01:54:48;;;;;;;4.30;3.70;;;;;;;1.63;79.60;94353.66;108191;1259;101045;-74
2023/01/18 01:57:21;;;;;;;4.80;3.60;;;;;;;1.63;79.63;94349.82;108168;1259;99856;-73
2023/01/18 02:00:04;;;;;;;5.80;4.10;;;;;;;1.65;79.75;94335.43;108159;1259;96118;-74
2023/01/18 02:02:35;;;;;;;5.10;3.50;;;;;;;1.68;79.67;94309.52;108203;1260;96019;-75
2023/01/18 02:05:06;;;;;;;6.00;3.90;;;;;;;1.72;79.73;94278.64;108221;1259;103242;-74
2023/01/18 02:07:34;;;;;;;6.00;3.80;;;;;;;1.74;79.71;94252.29;108045;1259;101397;-74
2023/01/18 02:10:04;;;;;;;6.30;4.20;;;;;;;1.76;79.73;94236.95;108055;1259;100129;-74
2023/01/18 02:12:34;;;;;;;4.80;3.10;;;;;;;1.78;79.66;94233.45;108084;1263;95938;-74
2023/01/18 02:15:04;;;;;;;6.40;4.10;;;;;;;1.84;79.75;94256.84;108225;1259;96055;-73
2023/01/18 02:17:38;;;;;;;5.40;3.50;;;;;;;1.87;79.69;94273.71;108119;1259;103544;-74
2023/01/18 02:20:24;;;;;;;4.70;3.10;;;;;;;1.90;79.70;94271.29;108228;1259;101691;-74
2023/01/18 02:23:29;;;;;;;3.30;2.50;;;;;;;1.89;79.72;94271.42;108153;1259;99952;-74
2023/01/18 02:26:34;;;;;;;3.10;2.60;;;;;;;1.82;79.57;94273.14;108344;1251;95577;-74
2023/01/18 02:29:22;;;;;;;4.30;2.70;;;;;;;1.78;79.64;94286.92;108433;1253;96163;-75
2023/01/18 02:31:57;;;;;;;3.20;2.80;;;;;;;1.76;79.66;94293.02;108855;1251;103492;-74
2023/01/18 02:34:48;;;;;;;2.80;2.40;;;;;;;1.76;79.66;94292.16;108784;1251;101031;-74
2023/01/18 02:37:34;;;;;;;5.10;2.70;;;;;;;1.77;79.76;94297.94;108880;1251;100274;-74
2023/01/18 02:40:17;;;;;;;3.60;2.60;;;;;;;1.76;79.80;94299.35;108844;1251;95765;-74
2023/01/18 02:48:24;;;;;;;3.20;2.10;;;;;;;1.81;79.78;94315.66;108875;1251;101350;-75
2023/01/18 02:50:52;;;;;;;2.80;2.20;;;;;;;1.86;79.74;94318.70;108813;1251;99879;-74
2023/01/18 02:53:20;;;;;;;3.80;2.30;;;;;;;1.89;79.76;94327.61;108523;1252;95593;-75
2023/01/18 02:56:03;;;;;;;3.50;2.00;;;;;;;1.88;79.68;94325.87;108841;1251;95997;-74
2023/01/18 02:58:56;;;;;;;4.00;2.20;;;;;;;1.85;79.68;94318.95;108892;1251;103762;-74
2023/01/18 03:01:27;;;;;;;3.00;1.90;;;;;;;1.82;79.75;94307.70;108828;1251;101669;-74
2023/01/18 03:03:59;;;;;;;2.40;2.00;;;;;;;1.78;79.91;94308.48;108652;1251;98532;-74
2023/01/18 03:06:29;;;;;;;2.90;2.20;;;;;;;1.76;79.94;94319.77;108865;1251;95578;-74
2023/01/18 03:08:59;;;;;;;3.00;2.10;;;;;;;1.77;79.94;94324.73;108848;1251;96504;-74
2023/01/18 03:11:41;;;;;;;4.00;2.50;;;;;;;1.81;80.19;94322.36;108577;1253;103234;-74
2023/01/18 03:14:09;;;;;;;2.70;1.90;;;;;;;1.86;80.06;94321.52;108899;1250;100671;-73
2023/01/18 03:17:06;;;;;;;2.60;2.10;;;;;;;1.90;80.03;94328.98;108786;1251;100010;-74
2023/01/18 03:25:13;;;;;;;1.90;1.30;;;;;;;1.91;79.84;94346.36;108792;1252;103169;-74
2023/01/18 03:36:12;;;;;;;2.40;1.90;;;;;;;1.78;80.07;94314.66;108767;1252;96012;-74
2023/01/18 03:38:43;;;;;;;2.40;1.80;;;;;;;1.80;80.09;94313.70;108816;1253;103617;-74
2023/01/18 03:41:13;;;;;;;2.60;2.00;;;;;;;1.81;80.14;94315.71;108767;1253;101336;-73
2023/01/18 03:43:43;;;;;;;2.20;1.80;;;;;;;1.80;80.17;94314.33;108708;1253;99975;-74
2023/01/18 03:46:13;;;;;;;2.50;2.00;;;;;;;1.83;80.07;94301.81;108778;1253;95575;-74
2023/01/18 03:48:41;;;;;;;3.10;1.60;;;;;;;1.83;79.96;94289.48;108800;1252;96045;-74
2023/01/18 03:51:48;;;;;;;3.50;2.60;;;;;;;1.81;79.91;94289.28;108637;1252;103470;-75
2023/01/18 03:54:42;;;;;;;2.50;2.30;;;;;;;1.80;80.02;94288.58;108266;1259;101531;-74
2023/01/18 03:57:25;;;;;;;2.30;2.10;;;;;;;1.80;80.02;94281.46;108273;1259;99999;-74
2023/01/18 03:59:53;;;;;;;2.30;2.10;;;;;;;1.78;79.84;94271.63;108299;1257;95747;-73
2023/01/18 04:02:23;;;;;;;3.30;2.60;;;;;;;1.75;79.81;94269.31;108343;1258;96171;-74
2023/01/18 04:04:56;;;;;;;4.10;3.70;;;;;;;1.74;79.80;94270.09;108285;1259;103512;-74
2023/01/18 04:07:25;;;;;;;3.60;2.90;;;;;;;1.74;79.79;94264.77;108306;1258;101312;-73
2023/01/18 04:09:53;;;;;;;3.90;2.90;;;;;;;1.71;79.63;94264.17;108324;1259;99517;-73
2023/01/18 04:12:21;;;;;;;4.00;2.70;;;;;;;1.67;79.58;94262.38;108298;1258;95675;-73
2023/01/18 04:14:50;;;;;;;4.80;3.10;;;;;;;1.64;79.62;94265.62;108322;1258;96065;-73
2023/01/18 04:17:18;;;;;;;4.10;3.30;;;;;;;1.63;79.65;94272.10;108298;1258;102671;-73
2023/01/18 04:19:46;;;;;;;3.50;2.80;;;;;;;1.62;79.70;94282.27;108298;1258;101360;-72
2023/01/18 04:22:14;;;;;;;4.00;3.30;;;;;;;1.58;79.68;94293.39;108136;1258;99984;-73
2023/01/18 04:24:42;;;;;;;6.40;4.00;;;;;;;1.53;79.69;94300.52;108254;1259;95618;-75
2023/01/18 04:27:11;;;;;;;7.60;4.60;;;;;;;1.48;79.74;94307.63;108302;1257;96063;-74
2023/01/18 04:29:39;;;;;;;5.80;4.70;;;;;;;1.45;79.87;94314.52;108347;1258;103426;-73
2023/01/18 04:32:07;;;;;;;7.00;4.40;;;;;;;1.46;79.91;94318.85;108415;1254;101625;-74
2023/01/18 04:34:35;;;;;;;8.50;4.60;;;;;;;1.47;79.93;94312.33;108846;1251;100171;-73
2023/01/18 04:37:03;;;;;;;5.80;3.90;;;;;;;1.49;80.02;94304.34;108865;1251;95628;-74
2023/01/18 04:39:31;;;;;;;4.00;3.60;;;;;;;1.50;80.00;94301.98;108902;1251;95997;-74
2023/01/18 04:42:00;;;;;;;5.10;4.20;;;;;;;1.51;79.95;94306.63;108656;1251;103494;-74
2023/01/18 04:44:28;;;;;;;4.20;3.80;;;;;;;1.52;79.92;94299.42;108888;1251;101470;-73
2023/01/18 04:46:56;;;;;;;4.20;3.40;;;;;;;1.52;79.83;94288.70;108875;1251;99150;-74
2023/01/18 04:49:24;;;;;;;4.30;3.70;;;;;;;1.54;79.90;94281.02;108868;1251;95562;-74
2023/01/18 04:51:52;;;;;;;10.50;6.60;;;;;;;1.55;79.92;94282.23;108894;1251;96049;-74
2023/01/18 04:54:20;;;;;;;10.50;6.30;;;;;;;1.56;79.85;94291.39;108551;1256;103002;-73
2023/01/18 04:56:48;;;;;;;10.10;6.60;;;;;;;1.56;79.94;94300.42;108582;1255;100491;-74
2023/01/18 04:59:16;;;;;;;20.70;11.60;;;;;;;1.53;79.96;94309.61;108254;1256;98899;-74
2023/01/18 05:01:45;;;;;;;20.80;11.90;;;;;;;1.51;79.93;94309.40;108568;1255;95686;-74
2023/01/18 05:04:13;;;;;;;20.60;13.60;;;;;;;1.52;80.01;94303.26;108293;1256;96104;-73
2023/01/18 05:06:41;;;;;;;20.30;12.10;;;;;;;1.52;80.03;94298.15;108569;1256;103611;-74
2023/01/18 05:09:12;;;;;;;19.60;11.70;;;;;;;1.51;80.05;94306.14;108534;1255;101282;-73
2023/01/18 05:11:40;;;;;;;20.90;12.60;;;;;;;1.48;80.03;94311.66;108549;1255;100170;-73
2023/01/18 05:14:09;;;;;;;18.20;11.10;;;;;;;1.44;80.07;94311.21;108356;1256;95976;-73
2023/01/18 05:16:37;;;;;;;19.80;11.70;;;;;;;1.42;80.10;94302.55;108536;1255;96180;-74
2023/01/18 05:19:05;;;;;;;22.60;13.00;;;;;;;1.40;80.10;94285.34;108595;1256;102929;-73
2023/01/18 05:21:33;;;;;;;22.40;12.70;;;;;;;1.42;80.12;94262.95;108572;1256;101080;-74
2023/01/18 05:24:01;;;;;;;22.80;14.00;;;;;;;1.43;80.09;94259.63;108272;1255;97544;-74
2023/01/18 05:26:29;;;;;;;22.80;12.40;;;;;;;1.42;80.09;94278.46;108847;1251;95629;-74
2023/01/18 05:28:58;;;;;;;22.80;11.00;;;;;;;1.39;80.14;94293.86;108651;1251;96038;-74
2023/01/18 05:31:26;;;;;;;21.00;11.50;;;;;;;1.39;80.21;94300.50;108895;1251;104070;-73
2023/01/18 05:33:57;;;;;;;18.30;10.80;;;;;;;1.39;80.28;94304.54;108941;1250;101006;-74
2023/01/18 05:36:25;;;;;;;19.40;11.50;;;;;;;1.40;80.33;94302.35;108609;1252;99591;-74
2023/01/18 05:38:53;;;;;;;14.60;9.50;;;;;;;1.42;80.39;94293.98;108913;1251;95530;-75
2023/01/18 05:41:21;;;;;;;21.60;11.60;;;;;;;1.45;80.37;94268.52;108790;1251;96458;-74
2023/01/18 05:43:49;;;;;;;15.60;10.00;;;;;;;1.48;80.44;94261.20;108513;1252;104494;-75
2023/01/18 05:46:17;;;;;;;15.00;9.10;;;;;;;1.49;80.24;94262.34;108875;1251;101078;-74
2023/01/18 05:48:45;;;;;;;14.30;8.80;;;;;;;1.48;80.31;94263.54;108873;1251;100357;-73
2023/01/18 05:51:14;;;;;;;14.70;9.80;;;;;;;1.44;80.26;94272.19;108907;1251;95576;-74
2023/01/18 05:53:42;;;;;;;17.10;9.60;;;;;;;1.41;80.44;94287.58;108943;1251;96212;-73
2023/01/18 05:56:10;;;;;;;17.00;10.70;;;;;;;1.40;80.40;94294.42;108933;1251;103474;-73
2023/01/18 05:58:38;;;;;;;15.20;9.20;;;;;;;1.43;80.49;94296.84;108559;1250;101347;-74
2023/01/18 06:01:07;;;;;;;13.80;8.60;;;;;;;1.45;80.46;94301.16;108900;1251;99947;-74
2023/01/18 06:03:35;;;;;;;11.80;8.90;;;;;;;1.47;80.44;94300.15;108868;1251;95524;-74
2023/01/18 06:06:04;;;;;;;13.10;8.30;;;;;;;1.51;80.53;94308.06;108882;1251;95971;-73
2023/01/18 06:08:32;;;;;;;16.30;9.60;;;;;;;1.51;80.59;94320.57;108845;1253;103590;-74
2023/01/18 06:11:01;;;;;;;15.00;9.10;;;;;;;1.50;80.56;94333.30;108597;1251;100245;-75
2023/01/18 06:13:31;;;;;;;13.80;9.60;;;;;;;1.50;80.55;94329.25;108870;1251;100136;-74
2023/01/18 06:16:00;;;;;;;18.70;11.00;;;;;;;1.50;80.59;94332.23;108567;1251;95586;-73
2023/01/18 06:18:31;;;;;;;17.80;12.10;;;;;;;1.51;80.47;94331.61;108955;1251;96029;-73
2023/01/18 06:21:01;;;;;;;19.40;12.80;;;;;;;1.52;80.43;94327.44;108955;1251;103091;-74
2023/01/18 06:23:30;;;;;;;27.70;16.10;;;;;;;1.52;80.41;94324.69;108919;1251;101294;-74
2023/01/18 06:25:59;;;;;;;28.30;14.80;;;;;;;1.52;80.46;94322.12;108873;1251;99634;-74
2023/01/18 06:28:27;;;;;;;26.20;15.50;;;;;;;1.51;80.35;94309.17;108865;1251;95556;-74
2023/01/18 06:30:56;;;;;;;26.70;15.00;;;;;;;1.50;80.43;94305.17;108921;1251;96083;-74
2023/01/18 06:33:24;;;;;;;21.50;14.80;;;;;;;1.48;80.30;94311.61;108643;1252;103584;-75
2023/01/18 06:35:53;;;;;;;20.70;13.10;;;;;;;1.42;80.27;94323.42;108908;1251;100297;-74
2023/01/18 06:38:21;;;;;;;23.90;15.30;;;;;;;1.37;80.34;94329.27;108798;1251;99859;-74
2023/01/18 06:40:49;;;;;;;28.90;16.90;;;;;;;1.34;80.42;94329.84;108908;1251;95549;-74
2023/01/18 06:43:17;;;;;;;32.50;19.50;;;;;;;1.30;80.43;94329.15;108884;1251;95985;-74
2023/01/18 06:45:55;;;;;;;36.90;19.60;;;;;;;1.28;80.48;94338.94;108926;1251;103496;-74
2023/01/18 06:48:25;;;;;;;41.10;20.60;;;;;;;1.27;80.55;94345.61;108893;1251;101313;-74
2023/01/18 06:50:56;;;;;;;43.30;21.30;;;;;;;1.29;80.68;94342.41;108867;1251;100242;-74
2023/01/18 06:53:26;;;;;;;40.30;23.00;;;;;;;1.31;80.66;94339.39;108896;1251;95536;-74
2023/01/18 06:55:58;;;;;;;40.60;19.90;;;;;;;1.32;80.76;94351.58;108899;1251;96078;-74
2023/01/18 06:58:28;;;;;;;44.30;22.70;;;;;;;1.33;80.64;94355.85;108910;1251;103560;-74
2023/01/18 07:00:58;;;;;;;53.90;26.00;;;;;;;1.33;80.68;94351.60;108882;1251;109875;-73
2023/01/18 07:03:28;;;;;;;46.80;23.50;;;;;;;1.33;80.81;94355.32;108899;1251;99972;-74
2023/01/18 07:06:02;;;;;;;39.60;21.80;;;;;;;1.34;80.80;94357.67;108871;1251;95593;-73
2023/01/18 07:08:31;;;;;;;39.00;21.80;;;;;;;1.37;80.84;94355.31;108819;1253;96033;-75
2023/01/18 07:11:03;;;;;;;33.10;20.80;;;;;;;1.40;80.98;94352.37;108579;1251;103077;-74
2023/01/18 07:13:31;;;;;;;31.90;20.20;;;;;;;1.44;80.94;94360.11;108867;1251;101060;-73
2023/01/18 07:16:00;;;;;;;32.90;20.40;;;;;;;1.46;80.96;94365.98;108560;1251;99675;-74
2023/01/18 07:18:30;;;;;;;33.10;21.20;;;;;;;1.49;81.03;94372.86;108844;1251;95556;-74
2023/01/18 07:21:00;;;;;;;37.90;23.80;;;;;;;1.51;80.98;94370.47;108654;1252;96087;-74
2023/01/18 07:23:30;;;;;;;35.60;22.90;;;;;;;1.52;81.05;94372.33;108867;1250;103100;-75
2023/01/18 07:26:05;;;;;;;47.90;26.20;;;;;;;1.55;81.02;94378.03;108916;1251;101514;-75
2023/01/18 07:28:35;;;;;;;92.30;40.80;;;;;;;1.55;80.95;94383.14;108686;1252;99007;-75
2023/01/18 07:31:05;;;;;;;93.30;43.10;;;;;;;1.55;81.00;94387.18;108846;1251;95657;-73
2023/01/18 07:33:33;;;;;;;72.00;34.80;;;;;;;1.57;80.96;94391.58;108882;1251;95902;-74
2023/01/18 07:36:03;;;;;;;68.20;39.90;;;;;;;1.59;81.07;94389.23;108938;1251;103761;-73
2023/01/18 07:38:32;;;;;;;65.90;37.20;;;;;;;1.61;80.98;94388.16;108910;1251;109897;-74
2023/01/18 07:41:07;;;;;;;63.30;35.20;;;;;;;1.63;80.96;94394.85;108891;1251;99959;-73
2023/01/18 07:43:36;;;;;;;57.20;32.20;;;;;;;1.62;80.98;94393.44;108648;1251;95585;-74
2023/01/18 07:46:06;;;;;;;52.70;33.00;;;;;;;1.59;81.07;94393.47;108951;1251;96133;-74
2023/01/18 07:48:34;;;;;;;49.70;29.40;;;;;;;1.59;81.10;94391.60;108608;1256;103663;-75
2023/01/18 07:51:05;;;;;;;52.30;26.90;;;;;;;1.58;81.12;94390.80;108885;1251;100606;-76
2023/01/18 07:53:35;;;;;;;46.70;24.50;;;;;;;1.58;81.13;94384.20;108887;1254;99993;-76
2023/01/18 07:56:07;;;;;;;53.00;25.50;;;;;;;1.59;81.20;94376.74;108664;1251;95671;-75
2023/01/18 07:58:35;;;;;;;49.70;23.30;;;;;;;1.60;81.01;94367.08;108397;1254;95668;-75
2023/01/18 08:01:11;;;;;;;50.60;26.30;;;;;;;1.60;81.07;94363.98;108904;1251;103570;-76
2023/01/18 08:03:41;;;;;;;46.30;26.70;;;;;;;1.57;80.96;94363.29;108917;1251;101453;-75
2023/01/18 08:06:12;;;;;;;49.90;26.70;;;;;;;1.54;80.96;94364.98;108903;1251;99875;-76
2023/01/18 08:08:40;;;;;;;43.40;22.20;;;;;;;1.52;81.15;94369.35;108849;1253;95692;-76
2023/01/18 08:11:09;;;;;;;37.20;20.00;;;;;;;1.50;81.07;94373.84;108905;1251;96011;-76
2023/01/18 08:13:38;;;;;;;32.70;18.40;;;;;;;1.48;81.11;94378.90;108898;1251;103199;-77
2023/01/18 08:16:09;;;;;;;29.50;17.00;;;;;;;1.47;81.15;94382.70;108861;1251;101388;-77
2023/01/18 08:18:39;;;;;;;31.10;20.90;;;;;;;1.48;81.17;94386.14;108765;1252;100063;-78
2023/01/18 08:21:11;;;;;;;32.30;22.10;;;;;;;1.46;81.12;94387.42;108789;1253;95590;-78
2023/01/18 08:23:39;;;;;;;36.30;24.70;;;;;;;1.46;81.24;94387.26;108811;1252;95874;-77
2023/01/18 08:26:08;;;;;;;36.90;24.50;;;;;;;1.47;81.20;94381.20;108774;1252;102713;-79
2023/01/18 08:28:37;;;;;;;43.90;28.20;;;;;;;1.47;81.16;94383.98;108792;1253;100098;-77
2023/01/18 08:31:18;;;;;;;42.90;29.10;;;;;;;1.48;81.21;94388.80;108826;1252;98771;-77
2023/01/18 08:33:48;;;;;;;46.00;29.70;;;;;;;1.49;81.17;94389.36;108756;1252;95772;-77
2023/01/18 08:36:19;;;;;;;54.90;32.00;;;;;;;1.50;81.24;94386.55;108530;1252;96591;-77
2023/01/18 08:38:50;;;;;;;59.50;32.50;;;;;;;1.50;81.17;94392.57;108790;1252;103552;-78
2023/01/18 08:41:19;;;;;;;56.60;32.90;;;;;;;1.50;81.24;94396.78;108869;1254;101370;-77
2023/01/18 08:43:51;;;;;;;61.40;34.40;;;;;;;1.51;81.23;94396.11;108498;1254;99974;-76
2023/01/18 08:46:20;;;;;;;64.10;35.10;;;;;;;1.52;81.18;94394.75;108482;1254;95887;-76
2023/01/18 08:48:53;;;;;;;62.30;34.80;;;;;;;1.51;81.13;94400.77;108825;1254;96007;-77
2023/01/18 08:51:24;;;;;;;65.10;36.50;;;;;;;1.49;81.21;94406.11;108491;1260;103204;-78
2023/01/18 08:53:55;;;;;;;64.10;35.40;;;;;;;1.50;81.19;94414.36;108488;1253;101649;-78
2023/01/18 08:56:23;;;;;;;63.70;35.50;;;;;;;1.51;81.17;94418.48;108733;1251;100093;-77
2023/01/18 08:58:51;;;;;;;60.80;33.90;;;;;;;1.52;81.20;94422.35;108786;1253;95551;-77
2023/01/18 09:01:21;;;;;;;57.90;35.20;;;;;;;1.54;81.17;94425.43;108888;1251;95988;-77
2023/01/18 09:03:50;;;;;;;66.30;37.30;;;;;;;1.56;81.16;94423.77;108855;1252;103526;-79
2023/01/18 09:06:19;;;;;;;72.60;40.20;;;;;;;1.56;81.11;94425.54;108789;1252;101025;-79
2023/01/18 09:08:48;;;;;;;66.00;37.20;;;;;;;1.56;81.17;94427.30;108511;1252;100025;-77
2023/01/18 09:11:18;;;;;;;70.00;38.00;;;;;;;1.57;81.19;94428.31;108767;1252;95653;-78
2023/01/18 09:13:47;;;;;;;90.90;46.80;;;;;;;1.57;81.24;94415.92;108769;1254;96076;-78
2023/01/18 09:16:15;;;;;;;88.90;46.90;;;;;;;1.57;81.21;94406.20;108843;1253;103099;-78
2023/01/18 09:18:43;;;;;;;96.90;50.80;;;;;;;1.59;81.24;94412.25;108594;1251;101616;-79
2023/01/18 09:21:16;;;;;;;94.00;50.90;;;;;;;1.62;81.29;94415.20;108567;1252;98731;-78
2023/01/18 09:23:44;;;;;;;;;;;;;;;1.66;81.29;94399.89;108828;1252;95629;-78
2023/01/18 09:26:19;;;;;;;89.50;48.60;;;;;;;1.69;81.40;94392.41;108718;1252;96138;-77
2023/01/18 09:28:49;;;;;;;84.60;47.50;;;;;;;1.73;81.49;94396.65;108829;1252;103478;-77
2023/01/18 09:31:19;;;;;;;80.90;48.50;;;;;;;1.81;81.60;94406.67;108840;1250;110124;-77
2023/01/18 09:33:47;;;;;;;93.30;52.70;;;;;;;1.88;81.57;94420.02;108846;1251;99633;-76
2023/01/18 09:36:16;;;;;;;93.10;55.10;;;;;;;1.95;81.56;94436.42;108834;1251;95668;-77
2023/01/18 09:38:44;;;;;;;99.20;58.50;;;;;;;2.00;81.55;94450.38;108877;1251;95999;-76
2023/01/18 09:41:34;;;;;;;107.80;63.70;;;;;;;2.04;81.31;94463.63;108884;1251;103574;-76
2023/01/18 09:44:32;;;;;;;108.40;65.90;;;;;;;2.07;81.40;94478.23;108866;1251;101341;-76
2023/01/18 09:47:23;;;;;;;106.20;61.90;;;;;;;2.09;81.34;94486.78;108365;1256;99934;-76
2023/01/18 09:49:57;;;;;;;92.90;57.30;;;;;;;2.08;81.33;94483.81;108289;1257;95613;-77
2023/01/18 09:53:12;;;;;;;98.80;57.70;;;;;;;2.06;81.27;94487.71;108348;1257;96173;-76
2023/01/18 09:55:40;;;;;;;87.40;51.70;;;;;;;2.02;81.24;94485.23;107957;1264;103729;-78
2023/01/18 09:58:30;;;;;;;80.80;48.60;;;;;;;2.01;81.23;94490.73;107803;1265;100366;-76
2023/01/18 10:01:08;;;;;;;83.00;47.50;;;;;;;2.00;81.24;94494.92;107931;1264;100202;-76
2023/01/18 10:03:47;;;;;;;77.60;45.70;;;;;;;1.99;81.27;94493.83;107897;1265;96072;-76
2023/01/18 10:06:30;;;;;;;77.20;48.40;;;;;;;1.98;81.30;94497.57;107931;1264;96213;-77
2023/01/18 10:09:05;;;;;;;81.90;46.20;;;;;;;2.01;81.35;94504.08;107981;1265;103282;-76
2023/01/18 10:11:54;;;;;;;72.30;44.40;;;;;;;2.04;81.48;94514.39;107936;1265;101328;-76
2023/01/18 10:14:48;;;;;;;76.60;44.30;;;;;;;2.07;81.56;94517.36;107937;1264;99884;-76
2023/01/18 10:17:28;;;;;;;64.00;38.80;;;;;;;2.09;81.52;94520.10;107910;1265;96092;-76
2023/01/18 10:19:56;;;;;;;55.60;35.60;;;;;;;2.12;81.58;94516.88;107768;1265;96123;-76
2023/01/18 10:22:38;;;;;;;67.80;36.70;;;;;;;2.16;81.56;94515.84;107736;1264;103714;-76
2023/01/18 10:25:29;;;;;;;58.50;35.10;;;;;;;2.18;81.56;94517.70;108177;1259;101495;-75
2023/01/18 10:28:24;;;;;;;96.20;48.20;;;;;;;2.22;81.64;94514.13;107922;1265;100162;-75
2023/01/18 10:31:19;;;;;;;83.10;46.20;;;;;;;2.30;81.75;94519.84;107915;1265;95634;-75
2023/01/18 10:33:51;;;;;;;60.70;37.50;;;;;;;2.35;81.71;94524.19;107904;1265;96623;-75
2023/01/18 10:36:33;;;;;;;61.90;36.40;;;;;;;2.39;81.79;94522.05;107902;1265;103665;-74
2023/01/18 10:39:05;;;;;;;65.20;40.30;;;;;;;2.44;81.79;94530.05;107894;1266;100443;-76
2023/01/18 10:41:39;;;;;;;84.80;48.10;;;;;;;2.50;81.76;94534.19;107882;1265;99964;-75
2023/01/18 10:44:08;;;;;;;80.20;46.20;;;;;;;2.57;81.97;94536.89;107874;1268;95649;-75
2023/01/18 10:46:36;;;;;;;79.00;44.60;;;;;;;2.62;81.94;94535.55;107583;1265;96187;-75
2023/01/18 10:49:07;;;;;;;71.80;43.70;;;;;;;2.68;82.03;94539.94;107897;1265;103695;-76
2023/01/18 10:51:39;;;;;;;68.30;41.90;;;;;;;2.77;82.19;94547.72;107912;1265;101833;-75
2023/01/18 10:54:19;;;;;;;79.60;45.60;;;;;;;2.85;82.23;94547.42;107875;1265;99933;-75
2023/01/18 10:56:47;;;;;;;63.90;38.10;;;;;;;2.90;82.18;94549.08;107898;1265;95629;-75
2023/01/18 10:59:40;;;;;;;62.70;37.50;;;;;;;2.97;82.27;94551.90;107897;1265;96208;-76
2023/01/18 11:02:19;;;;;;;;;;;;;;;3.05;82.30;94561.39;107790;1265;103545;-74
2023/01/18 11:04:55;;;;;;;54.10;32.60;;;;;;;3.09;82.32;94567.63;107979;1259;101461;-74
2023/01/18 11:07:28;;;;;;;48.90;31.60;;;;;;;3.15;82.20;94570.51;108207;1259;100138;-74
2023/01/18 11:10:05;;;;;;;42.00;26.70;;;;;;;3.19;82.05;94570.50;108218;1259;96022;-74
2023/01/18 11:12:36;;;;;;;46.30;29.90;;;;;;;3.23;81.96;94576.94;108840;1251;96005;-74
2023/01/18 11:15:22;;;;;;;31.00;19.70;;;;;;;3.31;82.09;94583.85;108745;1251;103168;-75
2023/01/18 11:17:53;;;;;;;28.90;17.90;;;;;;;3.34;81.92;94594.17;108880;1251;101289;-74
2023/01/18 11:20:46;;;;;;;35.10;19.30;;;;;;;3.39;82.03;94598.96;108661;1251;98953;-74
2023/01/18 11:23:41;;;;;;;34.40;20.30;;;;;;;3.47;82.17;94594.65;108851;1251;95556;-74
2023/01/18 11:26:17;;;;;;;39.10;21.70;;;;;;;3.57;82.27;94594.54;108312;1259;96122;-74
2023/01/18 11:29:06;;;;;;;38.00;22.60;;;;;;;3.66;82.14;94595.52;108284;1259;103537;-74
2023/01/18 11:31:46;;;;;;;37.10;23.50;;;;;;;3.74;82.05;94597.23;108263;1258;101244;-74
2023/01/18 11:34:39;;;;;;;36.30;20.40;;;;;;;3.83;82.03;94602.41;108260;1259;99922;-75
2023/01/18 11:37:28;;;;;;;31.00;20.40;;;;;;;4.02;82.22;94603.68;108291;1259;95665;-75
2023/01/18 11:39:57;;;;;;;27.60;17.70;;;;;;;4.27;82.33;94609.86;108298;1260;96185;-74
2023/01/18 11:42:33;;;;;;;25.60;17.40;;;;;;;4.42;82.08;94614.98;108280;1260;103808;-75
2023/01/18 11:45:07;;;;;;;37.30;23.10;;;;;;;4.52;81.63;94615.69;108275;1259;101384;-74
2023/01/18 11:48:10;;;;;;;38.60;20.00;;;;;;;4.59;81.19;94614.83;108208;1258;99841;-75
2023/01/18 11:50:38;;;;;;;;;;;;;;;4.67;81.01;94622.41;107881;1265;96117;-74
2023/01/18 11:53:26;;;;;;;23.20;16.60;;;;;;;4.76;80.83;94626.06;107887;1265;97170;-74
2023/01/18 11:56:05;;;;;;;21.60;13.90;;;;;;;4.89;80.82;94629.66;107871;1265;102294;-74
2023/01/18 11:58:35;;;;;;;28.30;18.50;;;;;;;5.04;80.83;94640.48;107884;1265;101298;-75
2023/01/18 12:01:34;;;;;;;29.60;17.90;;;;;;;5.15;80.57;94643.42;107858;1265;99955;-74
2023/01/18 12:04:12;;;;;;;24.90;16.60;;;;;;;5.31;80.36;94646.80;108127;1259;95692;-75
2023/01/18 12:06:54;;;;;;;29.90;18.60;;;;;;;5.52;80.51;94651.02;108244;1259;96102;-74
2023/01/18 12:09:46;;;;;;;28.50;18.50;;;;;;;5.62;79.92;94658.17;108251;1259;103621;-75
2023/01/18 12:12:55;;;;;;;21.70;14.40;;;;;;;5.67;79.85;94669.73;108271;1263;101497;-75
2023/01/18 12:15:40;;;;;;;18.80;11.90;;;;;;;5.71;79.60;94675.52;107903;1265;100247;-74
2023/01/18 12:18:38;;;;;;;15.90;10.10;;;;;;;5.76;79.35;94681.88;107901;1264;95821;-74
2023/01/18 12:21:14;;;;;;;12.90;8.80;;;;;;;5.81;79.21;94686.95;107772;1265;96558;-74
2023/01/18 12:24:07;;;;;;;9.90;6.50;;;;;;;5.84;79.04;94692.66;107746;1265;103685;-74
2023/01/18 12:26:35;;;;;;;7.10;4.10;;;;;;;5.83;78.63;94700.30;107943;1264;100398;-74
2023/01/18 12:29:54;;;;;;;7.40;4.80;;;;;;;5.83;78.43;94701.70;108222;1257;99908;-74